Latest Weather Observations for Mortlake

IDV60801

Issued at 10:31 am EDT Wednesday 1 April 2015 (issued every 30 minutes, with the page automatically refreshed every 10 minutes)

About weather observations | Map of weather stations | Latest weather observations for VIC | Other Formats
Station Details ID: 090176 Name: MORTLAKE RACECOURSE Lat: -38.07 Lon: 142.77 Height: 130.0 m
Data from the previous 72 hours. | See also: Recent months at Mortlake
Date/Time
EDT
Temp
°C
App
Temp
°C
Dew
Point
Rel
Hum
%
Delta-T
°C
Wind Press
QNH
hPa
Press
MSL
hPa
Rain
since 9 am
mm
Dir
 
Spd
km/h
Gust
km/h
Spd
kts
Gust
kts
01/10:30am 23.8 18.0 7.8 36 8.5 N 28 39 15 21 1015.9 1015.6 0.0
01/10:00am 23.4 17.7 8.3 38 8.0 N 28 35 15 19 1016.3 1016.1 0.0
01/09:30am 22.7 17.5 8.8 41 7.5 N 26 39 14 21 1016.4 1016.2 0.0
01/09:00am 19.9 16.2 9.5 51 5.6 N 19 24 10 13 1016.6 1016.4 0.0
01/08:30am 19.3 15.3 9.2 52 5.3 N 20 28 11 15 1016.9 1016.7 0.0
01/08:00am 18.5 15.1 9.3 55 4.9 N 17 26 9 14 1017.0 1016.8 0.0
01/07:30am 16.1 12.7 9.1 63 3.6 N 17 19 9 10 1017.1 1016.9 0.0
01/07:00am 17.5 14.5 9.2 58 4.3 N 15 20 8 11 1017.2 1017.0 0.0
01/06:30am 15.0 13.0 8.7 66 3.2 N 9 9 5 5 1017.3 1017.1 0.0
01/06:00am 15.0 12.6 8.5 65 3.3 N 11 15 6 8 1017.2 1017.0 0.0
01/05:30am 14.5 11.6 8.0 65 3.3 N 13 15 7 8 1017.3 1017.1 0.0
01/05:00am 15.0 12.5 8.0 63 3.5 N 11 15 6 8 1017.4 1017.2 0.0
01/04:30am 13.9 11.4 8.1 68 2.9 N 11 15 6 8 1017.9 1017.7 0.0
01/04:00am 13.9 11.0 8.1 68 2.9 N 13 17 7 9 1018.3 1018.1 0.0
01/03:30am 13.8 11.7 8.4 70 2.7 N 9 11 5 6 1018.5 1018.3 0.0
01/03:00am 13.6 12.3 9.1 74 2.3 NNE 6 9 3 5 1019.0 1018.8 0.0
01/02:30am 14.0 12.9 10.0 77 2.1 NNE 6 9 3 5 1019.5 1019.3 0.0
01/02:00am 13.3 13.3 11.0 86 1.2 NE 2 6 1 3 1019.8 1019.6 0.0
01/01:30am 13.6 13.0 11.8 89 1.0 ENE 6 7 3 4 1019.8 1019.6 0.0
01/01:00am 14.8 13.6 12.7 87 1.2 E 11 15 6 8 1020.1 1019.9 0.0
01/12:30am 15.3 13.3 12.8 85 1.4 ENE 15 19 8 10 1020.5 1020.3 0.0
01/12:00am 15.6 13.7 12.9 84 1.5 ENE 15 20 8 11 1020.9 1020.7 0.0
 
Date/Time
EDT
Temp
°C
App
Temp
°C
Dew
Point
Rel
Hum
%
Delta-T
°C
Wind Press
QNH
hPa
Press
MSL
hPa
Rain
since 9 am
mm
Dir
 
Spd
km/h
Gust
km/h
Spd
kts
Gust
kts
31/11:30pm 15.8 15.5 12.7 82 1.7 ENE 6 9 3 5 1021.2 1021.0 0.0
31/11:00pm 16.3 15.8 12.8 80 1.9 ENE 7 13 4 7 1021.4 1021.2 0.0
31/10:30pm 17.3 16.5 13.0 76 2.4 ENE 9 15 5 8 1021.5 1021.3 0.0
31/10:00pm 18.1 16.6 13.0 72 2.9 ENE 13 20 7 11 1021.3 1021.1 0.0
31/09:30pm 16.9 17.0 12.8 77 2.3 E 4 6 2 3 1021.5 1021.3 0.0
31/09:00pm 17.6 17.4 14.7 83 1.7 ESE 9 11 5 6 1021.6 1021.4 0.0
31/08:30pm 17.0 17.0 14.1 83 1.7 S 7 7 4 4 1021.3 1021.1 0.0
31/08:00pm 18.9 18.9 15.2 79 2.2 S 9 11 5 6 1021.4 1021.2 0.0
31/07:30pm 19.6 18.9 14.4 72 3.0 SSW 11 13 6 7 1021.3 1021.1 0.0
31/07:00pm 22.1 21.4 14.2 61 4.6 SSW 11 13 6 7 1021.0 1020.8 0.0
31/06:30pm 25.9 26.0 10.1 37 8.8 CALM 0 2 0 1 1020.8 1020.6 0.0
31/06:00pm 26.8 26.9 10.1 35 9.3 CALM 0 4 0 2 1020.8 1020.6 0.0
31/05:30pm 26.3 25.7 10.5 37 8.9 WNW 4 6 2 3 1021.1 1020.9 0.0
31/05:00pm 26.8 25.2 10.1 35 9.3 WNW 9 15 5 8 1021.2 1021.0 0.0
31/04:30pm 26.2 25.3 10.8 38 8.7 NNW 6 15 3 8 1021.4 1021.2 0.0
31/04:00pm 26.2 24.9 11.2 39 8.5 WNW 9 13 5 7 1022.0 1021.7 0.0
31/03:30pm 25.4 24.2 10.4 39 8.4 WNW 7 17 4 9 1022.2 1021.9 0.0
31/03:00pm 25.6 24.8 11.7 42 7.9 NNW 7 15 4 8 1022.6 1022.3 0.0
31/02:30pm 24.6 23.5 10.8 42 7.7 WNW 7 13 4 7 1023.0 1022.8 0.0
31/02:00pm 24.0 23.7 12.6 49 6.6 NE 6 9 3 5 1023.5 1023.3 0.0
31/01:30pm 22.7 22.4 12.6 53 5.8 N 6 11 3 6 1023.8 1023.6 0.0
31/01:00pm 21.6 20.5 13.0 58 4.9 NNE 11 19 6 10 1024.4 1024.2 0.0
31/12:30pm 20.4 19.5 13.6 65 3.9 NNE 11 15 6 8 1024.9 1024.7 0.0
31/12:00pm 19.0 18.7 14.3 74 2.7 NNE 9 13 5 7 1025.5 1025.3 0.0
31/11:30am 16.4 16.7 14.6 89 1.0 NNE 6 7 3 4 1026.1 1025.9 0.0
31/11:00am 13.6 13.4 13.6 100 0.0 NE 7 11 4 6 1026.4 1026.2 0.0
31/10:30am 13.1 12.4 13.1 100 0.0 ENE 9 11 5 6 1026.3 1026.1 0.0
31/10:00am 12.0 10.5 12.0 100 0.0 NE 11 17 6 9 1026.5 1026.3 0.0
31/09:30am 11.4 10.1 11.2 99 0.1 NE 9 13 5 7 1026.8 1026.6 0.0
31/09:00am 10.8 9.3 10.6 99 0.1 ENE 9 13 5 7 1026.8 1026.6 0.0
31/08:30am 10.4 10.1 10.2 99 0.1 ESE 2 6 1 3 1026.8 1026.6 0.0
31/08:00am 9.0 8.4 8.9 99 0.0 ESE 2 4 1 2 1026.4 1026.2 0.0
31/07:30am 8.8 7.8 8.7 99 0.0 ESE 4 7 2 4 1026.2 1026.0 0.0
31/07:00am 7.8 6.9 7.7 99 0.0 ESE 2 4 1 2 1026.0 1025.8 0.0
31/06:30am 9.1 8.1 9.0 99 0.0 ESE 4 6 2 3 1025.8 1025.6 0.0
31/06:00am 9.4 8.5 9.3 99 0.0 SSW 4 4 2 2 1025.5 1025.3 0.0
31/05:30am 9.9 9.5 9.8 99 0.1 SSW 2 4 1 2 1025.6 1025.4 0.0
31/05:00am 9.5 9.0 9.4 99 0.0 SSW 2 4 1 2 1025.5 1025.3 0.0
31/04:30am 7.8 7.3 7.7 99 0.0 CALM 0 0 0 0 1025.5 1025.3 0.0
31/04:00am 7.3 6.3 7.2 99 0.0 SSW 2 2 1 1 1025.6 1025.4 0.0
31/03:30am 8.3 7.5 8.2 99 0.0 SSW 2 4 1 2 1025.8 1025.6 0.0
31/03:00am 9.7 8.3 9.6 99 0.0 SSW 7 9 4 5 1026.0 1025.8 0.0
31/02:30am 10.0 9.6 9.9 99 0.1 S 2 4 1 2 1026.2 1026.0 0.0
31/02:00am 10.3 10.0 10.1 99 0.1 SE 2 4 1 2 1026.3 1026.1 0.0
31/01:30am 8.9 8.3 8.8 99 0.0 SE 2 4 1 2 1026.2 1026.0 0.0
31/01:00am 9.1 8.9 9.0 99 0.0 CALM 0 0 0 0 1026.3 1026.1 0.0
31/12:30am 9.5 9.4 9.4 99 0.0 CALM 0 0 0 0 1026.4 1026.2 0.0
31/12:00am 9.9 9.9 9.8 99 0.1 CALM 0 0 0 0 1026.6 1026.4 0.0
 
Date/Time
EDT
Temp
°C
App
Temp
°C
Dew
Point
Rel
Hum
%
Delta-T
°C
Wind Press
QNH
hPa
Press
MSL
hPa
Rain
since 9 am
mm
Dir
 
Spd
km/h
Gust
km/h
Spd
kts
Gust
kts
30/11:30pm 10.7 10.5 10.5 99 0.1 SE 2 2 1 1 1026.6 1026.4 0.0
30/11:00pm 11.8 11.9 11.5 98 0.2 SE 2 4 1 2 1026.6 1026.4 0.0
30/10:30pm 12.4 11.9 11.9 97 0.3 SE 6 6 3 3 1026.6 1026.4 0.0
30/10:00pm 12.7 12.0 12.1 96 0.3 SE 7 7 4 4 1026.5 1026.3 0.0
30/09:30pm 12.8 12.3 11.9 94 0.5 SE 6 7 3 4 1026.3 1026.1 0.0
30/09:00pm 13.4 12.4 12.3 93 0.6 SSE 9 11 5 6 1026.2 1026.0 0.0
30/08:30pm 13.9 12.3 11.4 85 1.3 S 11 13 6 7 1026.1 1025.9 0.0
30/08:00pm 14.6 12.5 11.0 79 1.9 SSE 13 13 7 7 1025.8 1025.6 0.0
30/07:30pm 16.4 14.7 11.3 72 2.8 S 11 13 6 7 1025.6 1025.4 0.0
30/07:00pm 18.1 16.5 11.7 66 3.5 S 11 15 6 8 1025.3 1025.1 0.0
30/06:30pm 18.9 16.1 11.5 62 4.1 SSW 17 24 9 13 1025.0 1024.8 0.0
30/06:00pm 20.3 18.6 12.3 60 4.5 SSW 13 20 7 11 1024.7 1024.5 0.0
30/05:30pm 20.4 17.8 12.1 59 4.7 SW 17 22 9 12 1024.3 1024.1 0.0
30/05:00pm 20.6 18.6 12.6 60 4.5 SSW 15 22 8 12 1024.1 1023.9 0.0
30/04:30pm 20.2 19.0 12.7 62 4.3 SW 11 19 6 10 1024.1 1023.9 0.0
30/04:00pm 20.8 18.8 11.4 55 5.2 SW 13 17 7 9 1024.1 1023.9 0.0
30/03:30pm 21.7 21.2 12.8 57 5.1 SW 7 13 4 7 1024.2 1024.0 0.0
30/03:00pm 21.0 19.8 12.7 59 4.7 WSW 11 22 6 12 1024.4 1024.2 0.0
30/02:30pm 20.1 18.3 12.1 60 4.5 W 13 19 7 10 1024.7 1024.5 0.0
30/02:00pm 19.4 17.8 11.4 60 4.4 SW 11 17 6 9 1025.0 1024.8 0.0
30/01:30pm 19.2 18.3 12.7 66 3.7 WSW 9 17 5 9 1025.2 1025.0 0.0
30/01:00pm 19.2 18.3 13.6 70 3.2 SW 11 17 6 9 1025.3 1025.1 0.0
30/12:30pm 19.5 18.4 13.2 67 3.6 W 11 17 6 9 1025.3 1025.1 0.0
30/12:00pm 18.5 18.0 12.7 69 3.2 WSW 7 13 4 7 1025.5 1025.3 0.0
30/11:30am 17.9 17.1 12.8 72 2.9 WNW 9 13 5 7 1025.7 1025.5 0.0
30/11:00am 16.3 15.4 12.5 78 2.1 WSW 9 15 5 8 1025.7 1025.5 0.0
30/10:30am 16.1 16.0 13.2 83 1.6 WSW 6 11 3 6 1025.4 1025.2 0.0
30/10:00am 14.9 15.0 12.6 86 1.3 ENE 4 6 2 3 1025.3 1025.1 0.0
30/09:30am 12.9 12.5 12.3 96 0.3 ENE 6 7 3 4 1025.0 1024.8 0.0
30/09:00am 10.9 10.0 10.7 99 0.1 ENE 6 7 3 4 1024.8 1024.6 0.0
30/08:30am 8.9 8.6 8.8 99 0.0 CALM 0 0 0 0 1024.5 1024.3 0.0
30/08:00am 7.7 6.8 7.6 99 0.0 ENE 2 4 1 2 1024.3 1024.1 0.0
30/07:30am 6.8 4.9 6.7 99 0.0 ENE 6 6 3 3 1024.0 1023.8 0.0
30/07:00am 6.6 4.7 6.5 99 0.0 ENE 6 6 3 3 1023.7 1023.5 0.0
30/06:30am 6.7 4.8 6.6 99 0.0 ENE 6 6 3 3 1023.6 1023.4 0.0
30/06:00am 7.8 6.1 7.7 99 0.0 ENE 6 6 3 3 1023.3 1023.1 0.0
30/05:30am 7.5 5.8 7.4 99 0.0 ENE 6 6 3 3 1023.3 1023.1 0.0
30/05:00am 7.6 5.9 7.5 99 0.0 ENE 6 6 3 3 1023.0 1022.8 0.0
30/04:30am 7.4 6.0 7.3 99 0.0 ENE 4 4 2 2 1023.1 1022.9 0.0
30/04:00am 8.7 7.6 8.6 99 0.0 ENE 4 6 2 3 1023.1 1022.9 0.0
30/03:30am 8.3 6.7 8.2 99 0.0 ENE 6 6 3 3 1023.0 1022.8 0.0
30/03:00am 8.7 7.2 8.3 97 0.2 ENE 6 7 3 4 1023.1 1022.9 0.0
30/02:30am 10.2 8.8 9.7 97 0.3 ENE 7 9 4 5 1023.3 1023.1 0.0
30/02:00am 10.3 9.0 9.8 97 0.3 ENE 7 9 4 5 1023.5 1023.3 0.0
30/01:30am 10.2 8.8 9.7 97 0.3 ENE 7 7 4 4 1023.6 1023.4 0.0
30/01:00am 10.2 8.8 9.7 97 0.3 ENE 7 9 4 5 1023.8 1023.6 0.0
30/12:30am 10.3 9.0 9.8 97 0.3 ENE 7 9 4 5 1023.7 1023.5 0.0
30/12:00am 10.5 9.3 10.2 98 0.2 ENE 7 9 4 5 1023.8 1023.6 0.0
 
Date/Time
EDT
Temp
°C
App
Temp
°C
Dew
Point
Rel
Hum
%
Delta-T
°C
Wind Press
QNH
hPa
Press
MSL
hPa
Rain
since 9 am
mm
Dir
 
Spd
km/h
Gust
km/h
Spd
kts
Gust
kts
29/11:30pm 10.2 9.1 9.9 98 0.2 ENE 6 9 3 5 1024.0 1023.8 0.0
29/11:00pm 9.8 8.9 9.2 96 0.3 E 4 6 2 3 1024.0 1023.8 0.0
29/10:30pm 10.1 9.9 9.2 94 0.4 CALM 0 0 0 0 1024.0 1023.8 0.0
29/10:00pm 11.3 11.2 9.4 88 1.0 CALM 0 2 0 1 1023.8 1023.6 0.0
29/09:30pm 13.0 12.1 10.7 86 1.2 S 6 7 3 4 1023.7 1023.5 0.0
29/09:00pm 13.5 12.1 11.0 85 1.3 S 9 9 5 5 1023.4 1023.2 0.0
29/08:30pm 13.0 11.9 10.5 85 1.3 SSE 7 7 4 4 1023.1 1022.9 0.0
29/08:00pm 14.6 13.5 10.8 78 2.0 S 7 11 4 6 1022.8 1022.6 0.0
29/07:30pm 15.7 14.0 11.1 74 2.5 S 11 15 6 8 1022.4 1022.1 0.0
29/07:00pm 17.3 14.6 11.6 69 3.1 S 17 24 9 13 1022.1 1021.8 0.0
29/06:30pm 18.4 15.8 11.9 66 3.6 S 17 22 9 12 1021.7 1021.5 0.0
29/06:00pm 18.7 15.7 11.8 64 3.8 SSW 19 24 10 13 1021.5 1021.3 0.0
29/05:30pm 20.4 17.6 11.3 56 5.0 SSW 17 20 9 11 1021.2 1021.0 0.0
29/05:00pm 20.7 18.3 9.9 50 5.8 SW 13 19 7 10 1021.0 1020.8 0.0
29/04:30pm 21.4 19.1 10.3 49 6.1 WSW 13 20 7 11 1020.9 1020.7 0.0
29/04:00pm 21.1 19.5 10.3 50 5.9 WSW 9 20 5 11 1021.0 1020.8 0.0
29/03:30pm 20.9 18.6 10.4 51 5.7 WSW 13 20 7 11 1021.2 1021.0 0.0
29/03:00pm 20.6 17.8 10.1 51 5.7 WNW 15 28 8 15 1021.4 1021.2 0.0
29/02:30pm 20.0 18.5 10.4 54 5.2 WSW 9 17 5 9 1021.7 1021.5 0.0
29/02:00pm 20.4 18.2 10.8 54 5.3 W 13 19 7 10 1022.1 1021.8 0.0
29/01:30pm 19.5 17.1 10.2 55 5.0 WNW 13 20 7 11 1022.2 1021.9 0.0
29/01:00pm 19.3 17.3 10.0 55 5.0 W 11 20 6 11 1022.3 1022.0 0.0
29/12:30pm 18.8 17.1 9.8 56 4.8 WNW 9 19 5 10 1022.6 1022.3 0.0
29/12:00pm 17.8 15.7 9.9 60 4.2 W 11 20 6 11 1022.8 1022.6 0.0
29/11:30am 18.0 15.7 10.6 62 4.0 NW 13 22 7 12 1022.9 1022.7 0.0
29/11:00am 16.9 14.6 11.6 71 2.9 NW 15 20 8 11 1023.1 1022.9 0.0

Other Formats:

Comma delimited format used in spreadsheet applications
http://www.bom.gov.au/fwo/IDV60801/IDV60801.94840.axf

JavaScript Object Notation format (JSON) in row-major order
http://www.bom.gov.au/fwo/IDV60801/IDV60801.94840.json